Oldebroek, Netherlands
Current Conditions -  °F | °C
As of 2:25 AM on Monday 24 Nov 2014 (Local Time) from EHDL Reporting Station
Drizzle Drizzle  
Wind Chill: 46°   Ceiling: 4800
Heat Index: 48°   Visibility: 6mi
Dew Point: 48°   Wind: 6mph
Humidity: 100%   Direction: 290°WNW
Pressure: 30.03"   Gusts: NA
Location:  52.45°N, 5.9°E
Report Text: EHDL 240125Z AUTO 29005KT 9000 DZ FEW005 OVC048 09/09 Q1017 BLU
Loading
Personal Weather Stations






























Interactive Weather Map New forecast layout! Learn more

10-Day Weather Forecast

Advertisements
Track Severe Weather on mobile